createdAt,value
2019-05-19T00:01:33.762Z,98955.48
2019-05-19T00:05:40.682Z,98952.77
2019-05-19T00:09:47.435Z,98946.23
2019-05-19T00:13:54.183Z,98934.08
2019-05-19T00:18:00.957Z,98935.13
2019-05-19T00:22:07.911Z,98943.67
2019-05-19T00:26:14.685Z,98941.00
2019-05-19T00:30:21.501Z,98930.83
2019-05-19T00:34:31.194Z,98928.16
2019-05-19T00:38:38.217Z,98925.54
2019-05-19T00:42:44.971Z,98926.51
2019-05-19T00:46:52.759Z,98910.78
2019-05-19T00:50:59.624Z,98914.56
2019-05-19T00:55:06.361Z,98905.14
2019-05-19T00:59:13.735Z,98897.41
2019-05-19T01:03:20.516Z,98884.66
2019-05-19T01:07:27.373Z,98860.70
2019-05-19T01:11:34.119Z,98852.32
2019-05-19T01:15:40.968Z,98846.98
2019-05-19T01:19:56.109Z,98842.42
2019-05-19T01:23:56.850Z,98845.88
2019-05-19T01:28:03.678Z,98849.92
2019-05-19T01:32:10.549Z,98843.45
2019-05-19T01:36:17.351Z,98845.92
2019-05-19T01:40:24.099Z,98848.83
2019-05-19T01:44:30.911Z,98844.89
2019-05-19T01:48:38.672Z,98859.97
2019-05-19T01:52:45.523Z,98868.98
2019-05-19T01:56:52.234Z,98871.16
2019-05-19T02:00:58.997Z,98858.94
2019-05-19T02:05:05.820Z,98870.75
2019-05-19T02:09:12.523Z,98862.31
2019-05-19T02:13:19.677Z,98856.19
2019-05-19T02:17:26.416Z,98864.89
2019-05-19T02:21:34.102Z,98862.66
2019-05-19T02:25:40.806Z,98866.11
2019-05-19T02:29:48.461Z,98864.48
2019-05-19T02:33:55.341Z,98859.20
2019-05-19T02:38:02.442Z,98851.47
2019-05-19T02:42:14.230Z,98850.66
2019-05-19T02:46:21.699Z,98848.84
2019-05-19T02:50:30.455Z,98856.78
2019-05-19T02:54:38.740Z,98860.79
2019-05-19T02:58:47.084Z,98872.25
2019-05-19T03:02:54.161Z,98866.05
2019-05-19T03:07:00.822Z,98871.11
2019-05-19T03:11:07.830Z,98868.67
2019-05-19T03:15:14.666Z,98865.53
2019-05-19T03:19:21.364Z,98870.33
2019-05-19T03:23:28.524Z,98866.55
2019-05-19T03:27:37.473Z,98862.33
2019-05-19T03:31:50.864Z,98860.73
2019-05-19T03:35:57.587Z,98862.07
2019-05-19T03:40:06.212Z,98867.67
2019-05-19T03:44:12.929Z,98872.23
2019-05-19T03:48:19.730Z,98876.24
2019-05-19T03:52:26.452Z,98879.95
2019-05-19T03:56:33.179Z,98882.14
2019-05-19T04:00:39.865Z,98880.51
2019-05-19T04:04:46.644Z,98880.34
2019-05-19T04:08:53.400Z,98873.14
2019-05-19T04:13:00.087Z,98869.09
2019-05-19T04:17:06.870Z,98866.12
2019-05-19T04:21:13.581Z,98869.30
2019-05-19T04:25:20.252Z,98878.14
2019-05-19T04:29:26.996Z,98894.98
2019-05-19T04:33:33.678Z,98896.59
2019-05-19T04:37:40.469Z,98892.88
2019-05-19T04:41:47.164Z,98899.80
2019-05-19T04:45:53.895Z,98901.97
2019-05-19T04:50:00.612Z,98913.58
2019-05-19T04:54:07.448Z,98921.75
2019-05-19T04:58:14.167Z,98919.98
2019-05-19T05:02:20.903Z,98928.61
2019-05-19T05:06:27.684Z,98917.42
2019-05-19T05:10:34.444Z,98916.63
2019-05-19T05:14:41.314Z,98923.67
2019-05-19T05:18:50.729Z,98919.18
2019-05-19T05:22:57.835Z,98907.73
2019-05-19T05:27:04.571Z,98909.17
2019-05-19T05:31:11.233Z,98911.13
2019-05-19T05:35:18.693Z,98905.94
2019-05-19T05:39:25.424Z,98901.36
2019-05-19T05:43:32.215Z,98908.41
2019-05-19T05:47:38.991Z,98919.34
2019-05-19T05:51:45.689Z,98904.86
2019-05-19T05:55:52.579Z,98907.22
2019-05-19T05:59:59.443Z,98906.72
2019-05-19T06:04:06.224Z,98901.23
2019-05-19T06:08:13.084Z,98903.15
2019-05-19T06:12:19.959Z,98902.69
2019-05-19T06:16:28.685Z,98898.72
2019-05-19T06:20:35.573Z,98887.55
2019-05-19T06:24:42.456Z,98895.83
2019-05-19T06:28:49.443Z,98898.25
2019-05-19T06:32:58.452Z,98905.25
2019-05-19T06:37:05.750Z,98904.17
2019-05-19T06:41:13.983Z,98902.31
2019-05-19T06:45:21.747Z,98905.81
2019-05-19T06:49:29.397Z,98900.72
2019-05-19T06:53:36.800Z,98906.06
2019-05-19T06:57:43.889Z,98902.62
2019-05-19T07:01:54.963Z,98897.80
2019-05-19T07:06:01.738Z,98901.86
2019-05-19T07:10:09.040Z,98899.18
2019-05-19T07:14:15.757Z,98901.86
2019-05-19T07:18:22.534Z,98897.27
2019-05-19T07:22:37.562Z,98891.89
2019-05-19T07:26:43.981Z,98885.46
2019-05-19T07:30:50.845Z,98890.26
2019-05-19T07:34:57.685Z,98888.41
2019-05-19T07:39:05.714Z,98892.69
2019-05-19T07:43:13.303Z,98884.84
2019-05-19T07:47:20.290Z,98889.37
2019-05-19T07:51:28.483Z,98885.53
2019-05-19T07:55:35.412Z,98889.66
2019-05-19T07:59:42.543Z,98897.70
2019-05-19T08:03:49.394Z,98897.81
2019-05-19T08:07:56.252Z,98894.17
2019-05-19T08:12:03.805Z,98890.95
2019-05-19T08:16:11.675Z,98900.78
2019-05-19T08:20:20.317Z,98906.02
2019-05-19T08:24:27.053Z,98899.80
2019-05-19T08:28:34.471Z,98897.19
2019-05-19T08:32:41.421Z,98899.72
2019-05-19T08:36:48.878Z,98906.30
2019-05-19T08:40:55.794Z,98905.88
2019-05-19T08:45:07.658Z,98911.55
2019-05-19T08:49:14.535Z,98903.48
2019-05-19T08:53:29.275Z,98906.82
2019-05-19T08:57:36.696Z,98896.73
2019-05-19T09:01:44.084Z,98904.90
2019-05-19T09:05:56.097Z,98902.16
2019-05-19T09:10:02.873Z,98895.02
2019-05-19T09:14:09.652Z,98890.98
2019-05-19T09:18:16.431Z,98891.71
2019-05-19T09:22:23.228Z,98883.54
2019-05-19T09:26:29.946Z,98870.64
2019-05-19T09:30:36.715Z,98867.96
2019-05-19T09:34:43.405Z,98867.96
2019-05-19T09:38:50.173Z,98872.02
2019-05-19T09:42:56.941Z,98865.20
2019-05-19T09:47:04.906Z,98868.91
2019-05-19T09:51:11.760Z,98860.52
2019-05-19T09:55:19.588Z,98858.41
2019-05-19T09:59:26.374Z,98857.70
2019-05-19T10:03:33.094Z,98850.70
2019-05-19T10:07:39.790Z,98849.33
2019-05-19T10:12:04.490Z,98841.84
2019-05-19T10:16:11.299Z,98845.19
2019-05-19T10:20:19.018Z,98833.29
2019-05-19T10:24:26.787Z,98835.64
2019-05-19T10:28:33.711Z,98835.64
2019-05-19T10:32:40.490Z,98836.14
2019-05-19T10:36:48.064Z,98836.14
2019-05-19T10:40:54.915Z,98841.62
2019-05-19T10:45:01.650Z,98837.56
2019-05-19T10:49:08.450Z,98838.50
2019-05-19T10:53:15.348Z,98832.97
2019-05-19T10:57:24.865Z,98832.97
2019-05-19T11:01:31.863Z,98827.20
2019-05-19T11:05:40.184Z,98827.20
2019-05-19T11:09:47.020Z,98819.00
2019-05-19T11:13:53.822Z,98824.15
2019-05-19T11:18:06.388Z,98814.19
2019-05-19T11:22:12.108Z,98807.67
2019-05-19T11:26:18.933Z,98806.58
2019-05-19T11:30:25.681Z,98814.02
2019-05-19T11:34:34.032Z,98821.34
2019-05-19T11:38:40.967Z,98812.58
2019-05-19T11:42:47.776Z,98799.23
2019-05-19T11:46:54.549Z,98803.36
2019-05-19T11:51:01.227Z,98799.34
2019-05-19T11:55:08.264Z,98805.33
2019-05-19T11:59:15.124Z,98797.95
2019-05-19T12:03:21.876Z,98803.41
2019-05-19T12:07:28.927Z,98809.00
2019-05-19T12:11:35.738Z,98793.62
2019-05-19T12:15:43.330Z,98789.75
2019-05-19T12:19:50.406Z,98783.94
2019-05-19T12:23:57.249Z,98782.80
2019-05-19T12:28:08.621Z,98778.84
2019-05-19T12:32:16.551Z,98772.27
2019-05-19T12:36:25.226Z,98774.16
2019-05-19T12:40:34.032Z,98774.98
2019-05-19T12:44:41.478Z,98774.37
2019-05-19T12:48:48.736Z,98769.88
2019-05-19T12:52:55.570Z,98766.81
2019-05-19T12:57:02.542Z,98761.24
2019-05-19T13:01:09.768Z,98761.63
2019-05-19T13:05:17.000Z,98758.91
2019-05-19T13:09:29.011Z,98755.24
2019-05-19T13:13:36.402Z,98748.39
2019-05-19T13:17:43.240Z,98758.59
2019-05-19T13:21:50.157Z,98760.83
2019-05-19T13:25:57.169Z,98755.60
2019-05-19T13:30:04.121Z,98755.11
2019-05-19T13:34:13.218Z,98749.55
2019-05-19T13:38:20.001Z,98741.13
2019-05-19T13:42:26.822Z,98740.91
2019-05-19T13:46:36.514Z,98734.96
2019-05-19T13:50:44.335Z,98725.78
2019-05-19T13:54:51.400Z,98730.84
2019-05-19T13:58:58.184Z,98719.78
2019-05-19T14:03:05.124Z,98714.31
2019-05-19T14:07:12.037Z,98714.93
2019-05-19T14:11:21.169Z,98714.34
2019-05-19T14:15:32.567Z,98712.89
2019-05-19T14:19:40.384Z,98704.38
2019-05-19T14:23:47.260Z,98701.88
2019-05-19T14:27:54.276Z,98696.97
2019-05-19T14:32:01.546Z,98691.10
2019-05-19T14:36:08.387Z,98693.63
2019-05-19T14:40:18.492Z,98690.00
2019-05-19T14:44:27.033Z,98688.77
2019-05-19T14:48:33.842Z,98686.28
2019-05-19T14:52:40.747Z,98696.30
2019-05-19T14:56:47.596Z,98687.44
2019-05-19T15:00:54.372Z,98692.33
2019-05-19T15:05:02.679Z,98673.66
2019-05-19T15:09:09.752Z,98667.05
2019-05-19T15:13:16.773Z,98669.23
2019-05-19T15:17:27.628Z,98663.77
2019-05-19T15:21:34.430Z,98656.36
2019-05-19T15:25:41.343Z,98666.28
2019-05-19T15:30:11.767Z,98658.02
2019-05-19T15:34:08.093Z,98655.38
2019-05-19T15:38:15.053Z,98653.98
2019-05-19T15:42:21.819Z,98650.02
2019-05-19T15:46:28.971Z,98648.22
2019-05-19T15:50:35.939Z,98647.19
2019-05-19T15:54:44.284Z,98646.02
2019-05-19T15:58:51.365Z,98648.83
2019-05-19T16:02:58.164Z,98660.19
2019-05-19T16:07:04.999Z,98669.11
2019-05-19T16:11:12.092Z,98682.69
2019-05-19T16:15:21.994Z,98701.25
2019-05-19T16:19:28.892Z,98705.87
2019-05-19T16:23:35.965Z,98705.38
2019-05-19T16:27:42.886Z,98704.98
2019-05-19T16:31:49.891Z,98715.23
2019-05-19T16:35:57.029Z,98710.85
2019-05-19T16:40:03.921Z,98716.78
2019-05-19T16:44:11.781Z,98726.58
2019-05-19T16:48:18.621Z,98731.47
2019-05-19T16:52:26.423Z,98740.36
2019-05-19T16:56:34.609Z,98734.66
2019-05-19T17:00:45.527Z,98733.69
2019-05-19T17:04:55.384Z,98726.97
2019-05-19T17:09:02.080Z,98726.80
2019-05-19T17:13:10.092Z,98719.14
2019-05-19T17:17:18.699Z,98721.94
2019-05-19T17:21:25.468Z,98725.05
2019-05-19T17:25:34.114Z,98737.00
2019-05-19T17:29:40.886Z,98734.90
2019-05-19T17:33:47.745Z,98739.48
2019-05-19T17:37:54.577Z,98745.66
2019-05-19T17:42:01.462Z,98735.28
2019-05-19T17:46:08.384Z,98736.64
2019-05-19T17:50:17.406Z,98736.95
2019-05-19T17:54:24.383Z,98740.23
2019-05-19T17:58:33.002Z,98738.84
2019-05-19T18:02:39.729Z,98737.75
2019-05-19T18:06:46.489Z,98735.61
2019-05-19T18:10:53.411Z,98733.77
2019-05-19T18:15:03.171Z,98736.64
2019-05-19T18:19:18.435Z,98726.75
2019-05-19T18:23:26.433Z,98724.00
2019-05-19T18:27:33.223Z,98719.80
2019-05-19T18:31:40.988Z,98721.94
2019-05-19T18:35:48.820Z,98717.47
2019-05-19T18:39:57.310Z,98717.66
2019-05-19T18:44:04.257Z,98715.08
2019-05-19T18:48:11.363Z,98718.02
2019-05-19T18:52:18.332Z,98713.93
2019-05-19T18:56:25.608Z,98716.38
2019-05-19T19:00:37.885Z,98714.59
2019-05-19T19:04:44.742Z,98711.19
2019-05-19T19:08:51.594Z,98716.10
2019-05-19T19:12:58.637Z,98727.58
2019-05-19T19:17:05.513Z,98728.19
2019-05-19T19:21:12.545Z,98717.53
2019-05-19T19:25:19.456Z,98722.69
2019-05-19T19:29:27.202Z,98732.39
2019-05-19T19:33:34.131Z,98728.84
2019-05-19T19:37:41.925Z,98732.28
2019-05-19T19:41:51.931Z,98732.88
2019-05-19T19:45:59.236Z,98744.20
2019-05-19T19:50:06.948Z,98744.78
2019-05-19T19:54:14.926Z,98750.69
2019-05-19T19:58:21.726Z,98755.25
2019-05-19T20:02:28.491Z,98757.22
2019-05-19T20:06:35.279Z,98764.83
2019-05-19T20:10:42.008Z,98769.32
2019-05-19T20:14:48.894Z,98766.64
2019-05-19T20:18:55.732Z,98777.40
2019-05-19T20:23:02.533Z,98779.60
2019-05-19T20:27:09.241Z,98778.52
2019-05-19T20:31:16.040Z,98773.22
2019-05-19T20:35:22.909Z,98771.09
2019-05-19T20:39:29.693Z,98777.56
2019-05-19T20:43:37.113Z,98785.06
2019-05-19T20:47:43.909Z,98788.05
2019-05-19T20:51:50.678Z,98789.70
2019-05-19T20:56:00.251Z,98792.27
2019-05-19T21:00:08.125Z,98789.83
2019-05-19T21:04:15.344Z,98792.20
2019-05-19T21:08:22.039Z,98795.77
2019-05-19T21:12:28.762Z,98796.59
2019-05-19T21:16:35.600Z,98795.01
2019-05-19T21:20:48.920Z,98795.84
2019-05-19T21:24:56.159Z,98791.57
2019-05-19T21:29:02.922Z,98793.74
2019-05-19T21:33:09.678Z,98798.28
2019-05-19T21:37:16.465Z,98795.34
2019-05-19T21:41:23.248Z,98797.45
2019-05-19T21:45:29.994Z,98797.74
2019-05-19T21:49:42.076Z,98797.76
2019-05-19T21:53:48.853Z,98798.03
2019-05-19T21:57:55.600Z,98791.33
2019-05-19T22:02:02.798Z,98791.88
2019-05-19T22:06:09.833Z,98790.54
2019-05-19T22:10:16.760Z,98788.42
2019-05-19T22:14:23.456Z,98791.61
2019-05-19T22:18:30.163Z,98792.95
2019-05-19T22:22:36.888Z,98789.75
2019-05-19T22:26:43.594Z,98784.42
2019-05-19T22:30:50.372Z,98781.48
2019-05-19T22:34:57.060Z,98783.63
2019-05-19T22:39:04.823Z,98791.66
2019-05-19T22:43:11.669Z,98788.70
2019-05-19T22:47:18.378Z,98794.85
2019-05-19T22:51:25.080Z,98791.66
2019-05-19T22:55:31.764Z,98784.16
2019-05-19T22:59:38.537Z,98776.95
2019-05-19T23:03:45.305Z,98777.49
2019-05-19T23:07:51.981Z,98786.84
2019-05-19T23:11:58.720Z,98791.64
2019-05-19T23:16:05.410Z,98788.44
2019-05-19T23:20:12.263Z,98783.91
2019-05-19T23:24:18.981Z,98783.08
2019-05-19T23:28:25.726Z,98783.88
2019-05-19T23:32:32.510Z,98787.88
2019-05-19T23:36:39.347Z,98797.19
2019-05-19T23:40:46.236Z,98804.59
2019-05-19T23:44:53.001Z,98811.31
2019-05-19T23:48:59.690Z,98806.86
2019-05-19T23:53:07.579Z,98803.66
2019-05-19T23:57:14.342Z,98790.30
